PST,Max TemperatureF,Mean TemperatureF,Min TemperatureF,Max Dew PointF,MeanDew PointF,Min DewpointF,Max Humidity, Mean Humidity, Min Humidity, Max Sea Level PressureIn, Mean Sea Level PressureIn, Min Sea Level PressureIn, Max VisibilityMiles, Mean VisibilityMiles, Min VisibilityMiles, Max Wind SpeedMPH, Mean Wind SpeedMPH, Max Gust SpeedMPH,PrecipitationIn, CloudCover, Events, WindDirDegrees
2013-1-1,44,37,30,38,34,30,100,92,80,30.45,30.39,30.28,6,5,2,9,4,13,0.00,1,,76
2013-1-2,48,39,29,37,34,28,96,85,66,30.25,30.20,30.15,6,6,3,8,3,12,0.00,0,,75
2013-1-3,45,35,25,44,34,25,100,93,73,30.14,30.05,30.00,6,3,0,14,4,20,0.41,4,Fog-Rain,89
2013-1-4,48,45,41,46,44,41,100,96,87,30.28,30.21,30.06,6,2,0,14,4,24,0.30,8,Fog-Rain,165
2013-1-5,49,43,36,43,40,37,100,95,71,30.13,30.10,30.04,6,3,0,14,3,21,0.27,6,Fog-Rain,165
2013-1-6,45,41,37,44,41,37,100,96,90,30.13,30.06,29.87,6,3,1,14,6,22,0.74,8,Rain,150
2013-1-7,49,44,38,48,44,37,100,97,86,30.15,29.97,29.80,4,2,0,21,7,26,1.26,8,Fog-Rain,230
2013-1-8,50,45,39,49,44,37,100,96,89,30.14,29.85,29.68,5,2,0,28,11,39,1.60,8,Fog-Rain,176
2013-1-9,45,39,33,43,38,31,100,90,64,29.92,29.78,29.70,6,4,1,15,4,20,0.24,7,Rain,268
2013-1-10,46,37,27,38,32,26,100,92,65,30.14,30.07,29.93,6,4,0,9,2,12,T,5,Fog,58
2013-1-11,41,33,25,29,27,21,100,86,45,30.31,30.24,30.13,6,5,0,13,4,16,0.00,1,Fog,46
2013-1-12,41,34,26,29,26,23,92,81,45,30.43,30.37,30.31,6,6,5,8,2,13,0.00,3,,34
2013-1-13,36,30,24,32,30,23,96,90,75,30.48,30.45,30.43,6,4,1,8,1,9,0.01,7,Snow,78
2013-1-14,39,36,32,38,35,30,100,97,87,30.56,30.49,30.46,5,2,0,6,1,7,0.04,8,Fog,68
2013-1-15,46,37,27,39,31,27,100,97,71,30.70,30.65,30.58,6,2,0,6,1,8,0.00,3,Fog,87
2013-1-16,45,37,28,37,31,26,100,95,72,30.68,30.58,30.49,5,2,0,7,1,9,0.00,1,Fog,67
2013-1-17,53,39,24,41,29,21,100,91,52,30.49,30.38,30.28,6,3,0,7,0,8,0.00,0,Fog,25
2013-1-18,52,38,24,37,28,21,100,90,43,30.28,30.26,30.24,6,3,0,6,1,7,0.00,1,Fog,27
2013-1-19,56,41,25,40,31,24,100,87,50,30.34,30.28,30.26,6,4,1,7,2,13,0.00,0,,32
2013-1-20,49,36,23,39,29,21,100,94,62,30.35,30.27,30.21,5,2,0,8,1,10,0.00,1,Fog,240
2013-1-21,53,38,23,38,28,23,100,90,52,30.24,30.17,30.07,6,3,0,7,1,17,0.00,0,Fog,274
2013-1-22,49,38,27,38,32,26,96,79,52,30.09,29.96,29.88,6,5,3,12,3,16,0.04,2,Rain,79
2013-1-23,46,40,33,45,41,31,100,94,85,30.14,29.90,29.81,6,2,0,12,4,31,0.99,7,Fog-Rain,169
2013-1-24,46,39,31,43,36,30,100,86,76,30.17,30.06,29.95,5,3,0,18,7,26,0.31,6,Fog-Rain,124
2013-1-25,52,45,38,45,40,36,93,83,62,30.03,29.95,29.85,6,3,1,16,4,22,0.43,7,Rain,155
2013-1-26,45,42,38,41,38,35,93,85,76,30.04,29.94,29.84,7,3,0,10,2,16,0.51,8,Fog-Rain,144
2013-1-27,44,41,37,40,37,35,93,87,80,30.04,30.01,29.98,7,3,1,8,2,12,0.77,8,Rain,124
2013-1-28,46,43,40,43,40,37,89,83,76,30.14,30.08,30.05,5,3,1,13,6,23,0.66,8,Rain,279
2013-1-29,49,48,46,45,43,42,93,87,80,30.38,30.27,30.13,5,2,0,17,7,28,0.62,8,Fog-Rain,266
2013-1-30,49,48,46,46,45,43,93,90,86,30.40,30.37,30.33,2,1,0,8,2,9,0.71,8,Fog-Rain,216
2013-1-31,51,47,43,47,44,40,93,90,86,30.40,30.33,30.29,7,2,0,12,4,22,0.43,8,Fog-Rain,200